createdAt,value
2022-11-21T00:01:29.755Z,46.83
2022-11-21T00:03:57.204Z,44.43
2022-11-21T00:06:24.910Z,43.53
2022-11-21T00:08:52.891Z,42.97
2022-11-21T00:11:20.322Z,42.40
2022-11-21T00:13:47.946Z,43.60
2022-11-21T00:16:16.756Z,46.37
2022-11-21T00:18:44.645Z,45.20
2022-11-21T00:21:16.445Z,44.17
2022-11-21T00:23:45.541Z,43.53
2022-11-21T00:26:14.964Z,41.27
2022-11-21T00:28:42.817Z,43.90
2022-11-21T00:31:19.116Z,48.53
2022-11-21T00:33:46.499Z,44.70
2022-11-21T00:36:13.957Z,40.97
2022-11-21T00:38:41.335Z,42.27
2022-11-21T00:41:08.880Z,53.70
2022-11-21T00:43:36.345Z,43.00
2022-11-21T00:46:04.495Z,43.63
2022-11-21T00:48:32.789Z,43.57
2022-11-21T00:51:01.016Z,42.10
2022-11-21T00:53:29.780Z,41.60
2022-11-21T00:55:57.935Z,39.53
2022-11-21T00:58:25.693Z,39.00
2022-11-21T01:00:53.350Z,39.27
2022-11-21T01:03:20.780Z,39.70
2022-11-21T01:05:48.172Z,40.17
2022-11-21T01:08:15.588Z,41.90
2022-11-21T01:10:43.037Z,40.67
2022-11-21T01:13:10.471Z,41.63
2022-11-21T01:15:37.859Z,40.70
2022-11-21T01:18:05.258Z,40.63
2022-11-21T01:20:32.723Z,41.20
2022-11-21T01:23:00.111Z,41.07
2022-11-21T01:25:27.483Z,42.00
2022-11-21T01:27:54.846Z,41.63
2022-11-21T01:30:22.287Z,41.33
2022-11-21T01:32:50.312Z,41.23
2022-11-21T01:35:18.442Z,39.43
2022-11-21T01:37:50.203Z,42.47
2022-11-21T01:40:17.752Z,40.07
2022-11-21T01:43:02.299Z,40.63
2022-11-21T01:46:15.909Z,38.63
2022-11-21T01:48:52.572Z,37.50
2022-11-21T01:51:34.495Z,38.03
2022-11-21T01:54:13.700Z,35.77
2022-11-21T01:57:06.957Z,35.70
2022-11-21T01:59:58.437Z,34.60
2022-11-21T02:02:32.176Z,32.20
2022-11-21T02:05:01.731Z,33.23
2022-11-21T02:07:33.543Z,32.13
2022-11-21T02:10:03.667Z,31.27
2022-11-21T02:12:53.231Z,30.93
2022-11-21T02:15:24.783Z,29.90
2022-11-21T02:17:52.844Z,30.07
2022-11-21T02:20:23.540Z,31.77
2022-11-21T02:23:34.055Z,31.93
2022-11-21T02:26:01.606Z,33.00
2022-11-21T02:28:29.785Z,31.13
2022-11-21T02:30:57.182Z,29.30
2022-11-21T02:33:24.642Z,29.67
2022-11-21T02:36:03.116Z,28.57
2022-11-21T02:38:38.315Z,29.30
2022-11-21T02:41:26.892Z,29.23
2022-11-21T02:44:09.448Z,27.87
2022-11-21T02:46:36.961Z,27.80
2022-11-21T02:49:08.546Z,29.00
2022-11-21T02:51:35.943Z,28.50
2022-11-21T02:54:03.408Z,28.20
2022-11-21T02:56:31.397Z,27.67
2022-11-21T02:58:59.074Z,26.53
2022-11-21T03:01:26.529Z,26.43
2022-11-21T03:03:54.012Z,25.57
2022-11-21T03:06:21.420Z,26.07
2022-11-21T03:08:48.884Z,26.27
2022-11-21T03:11:16.351Z,25.73
2022-11-21T03:13:43.740Z,25.07
2022-11-21T03:16:11.222Z,25.77
2022-11-21T03:18:38.657Z,25.30
2022-11-21T03:21:06.050Z,24.33
2022-11-21T03:23:33.448Z,23.87
2022-11-21T03:26:00.843Z,24.60
2022-11-21T03:28:28.350Z,24.90
2022-11-21T03:30:55.714Z,23.60
2022-11-21T03:33:23.140Z,23.37
2022-11-21T03:35:50.532Z,23.63
2022-11-21T03:38:17.920Z,24.67
2022-11-21T03:40:45.331Z,24.27
2022-11-21T03:43:12.735Z,22.47
2022-11-21T03:45:40.191Z,23.03
2022-11-21T03:48:07.630Z,21.80
2022-11-21T03:50:35.048Z,22.13
2022-11-21T03:53:02.425Z,22.30
2022-11-21T03:55:29.849Z,23.63
2022-11-21T03:57:57.258Z,23.10
2022-11-21T04:00:24.732Z,22.87
2022-11-21T04:02:52.172Z,23.23
2022-11-21T04:05:19.596Z,22.10
2022-11-21T04:07:47.078Z,21.40
2022-11-21T04:10:14.882Z,20.90
2022-11-21T04:12:42.317Z,22.03
2022-11-21T04:15:13.634Z,22.03
2022-11-21T04:17:41.389Z,21.37
2022-11-21T04:20:09.952Z,21.47
2022-11-21T04:22:37.313Z,22.57
2022-11-21T04:25:05.177Z,23.27
2022-11-21T04:27:32.526Z,24.57
2022-11-21T04:29:59.889Z,22.10
2022-11-21T04:32:27.288Z,22.37
2022-11-21T04:34:54.673Z,19.47
2022-11-21T04:37:22.262Z,21.03
2022-11-21T04:39:49.755Z,18.67
2022-11-21T04:42:17.183Z,18.50
2022-11-21T04:44:44.680Z,18.90
2022-11-21T04:47:12.078Z,18.53
2022-11-21T04:49:39.482Z,19.87
2022-11-21T04:52:06.965Z,18.50
2022-11-21T04:54:34.503Z,18.37
2022-11-21T04:57:02.304Z,19.23
2022-11-21T04:59:29.879Z,18.97
2022-11-21T05:01:57.366Z,26.37
2022-11-21T05:04:24.828Z,20.87
2022-11-21T05:06:52.295Z,27.57
2022-11-21T05:09:19.731Z,27.23
2022-11-21T05:12:05.486Z,23.00
2022-11-21T05:14:32.863Z,29.70
2022-11-21T05:17:00.236Z,22.63
2022-11-21T05:19:27.615Z,20.23
2022-11-21T05:21:55.077Z,22.43
2022-11-21T05:24:22.633Z,19.90
2022-11-21T05:26:50.094Z,19.77
2022-11-21T05:29:17.494Z,19.43
2022-11-21T05:31:44.958Z,19.73
2022-11-21T05:34:12.395Z,19.40
2022-11-21T05:36:39.866Z,20.80
2022-11-21T05:39:07.505Z,25.00
2022-11-21T05:41:35.024Z,21.17
2022-11-21T05:44:02.449Z,22.53
2022-11-21T05:46:29.927Z,23.97
2022-11-21T05:48:57.316Z,24.60
2022-11-21T05:51:24.689Z,23.37
2022-11-21T05:53:52.415Z,23.13
2022-11-21T05:56:20.433Z,25.00
2022-11-21T05:58:47.934Z,28.80
2022-11-21T06:01:15.960Z,25.23
2022-11-21T06:03:43.643Z,25.03
2022-11-21T06:06:14.442Z,25.97
2022-11-21T06:08:45.025Z,23.27
2022-11-21T06:11:16.207Z,23.20
2022-11-21T06:13:44.093Z,22.07
2022-11-21T06:16:18.531Z,25.17
2022-11-21T06:18:50.060Z,25.53
2022-11-21T06:21:22.652Z,22.77
2022-11-21T06:23:55.885Z,27.50
2022-11-21T06:26:26.003Z,23.50
2022-11-21T06:28:54.499Z,28.27
2022-11-21T06:31:27.618Z,25.30
2022-11-21T06:33:58.097Z,27.23
2022-11-21T06:36:26.714Z,26.60
2022-11-21T06:38:56.098Z,30.23
2022-11-21T06:41:26.628Z,27.30
2022-11-21T06:43:54.056Z,23.40
2022-11-21T06:46:21.505Z,23.80
2022-11-21T06:48:48.985Z,23.70
2022-11-21T06:51:24.892Z,24.00
2022-11-21T06:53:58.023Z,23.20
2022-11-21T06:56:30.736Z,22.67
2022-11-21T06:58:58.792Z,25.10
2022-11-21T07:01:26.702Z,24.80
2022-11-21T07:03:54.764Z,24.87
2022-11-21T07:06:22.790Z,24.83
2022-11-21T07:09:17.625Z,26.63
2022-11-21T07:11:42.073Z,28.30
2022-11-21T07:14:09.776Z,26.53
2022-11-21T07:16:37.760Z,24.23
2022-11-21T07:19:05.764Z,24.17
2022-11-21T07:21:33.341Z,22.57
2022-11-21T07:24:00.743Z,23.10
2022-11-21T07:26:28.176Z,21.37
2022-11-21T07:28:55.666Z,21.97
2022-11-21T07:31:23.063Z,22.80
2022-11-21T07:33:50.453Z,22.20
2022-11-21T07:36:17.922Z,23.27
2022-11-21T07:38:47.024Z,22.13
2022-11-21T07:41:14.585Z,22.27
2022-11-21T07:43:42.051Z,24.27
2022-11-21T07:46:09.469Z,23.90
2022-11-21T07:48:36.867Z,23.13
2022-11-21T07:51:06.100Z,24.83
2022-11-21T07:53:33.732Z,24.53
2022-11-21T07:56:01.197Z,27.07
2022-11-21T07:58:28.730Z,21.83
2022-11-21T08:00:56.260Z,22.60
2022-11-21T08:03:25.485Z,27.00
2022-11-21T08:05:52.945Z,21.10
2022-11-21T08:08:20.361Z,20.40
2022-11-21T08:10:48.058Z,20.80
2022-11-21T08:13:15.780Z,23.20
2022-11-21T08:15:43.196Z,23.80
2022-11-21T08:18:21.278Z,22.60
2022-11-21T08:20:48.693Z,18.77
2022-11-21T08:23:16.704Z,20.40
2022-11-21T08:25:45.339Z,22.17
2022-11-21T08:28:14.045Z,20.77
2022-11-21T08:30:41.760Z,23.07
2022-11-21T08:33:09.253Z,20.33
2022-11-21T08:35:40.576Z,24.17
2022-11-21T08:38:08.946Z,20.40
2022-11-21T08:40:36.615Z,21.73
2022-11-21T08:43:09.904Z,30.07
2022-11-21T08:45:39.567Z,20.43
2022-11-21T08:48:12.983Z,22.00
2022-11-21T08:50:40.386Z,21.80
2022-11-21T08:53:07.799Z,23.60
2022-11-21T08:55:35.330Z,29.50
2022-11-21T08:58:02.893Z,32.83
2022-11-21T09:00:30.274Z,28.53
2022-11-21T09:02:57.681Z,27.83
2022-11-21T09:05:25.111Z,23.37
2022-11-21T09:07:59.130Z,21.77
2022-11-21T09:10:27.547Z,20.10
2022-11-21T09:12:58.021Z,21.10
2022-11-21T09:15:44.351Z,20.63
2022-11-21T09:18:12.645Z,21.27
2022-11-21T09:20:45.027Z,20.60
2022-11-21T09:23:15.436Z,19.20
2022-11-21T09:25:43.879Z,17.83
2022-11-21T09:28:13.295Z,19.90
2022-11-21T09:30:42.109Z,19.80
2022-11-21T09:33:17.078Z,21.20
2022-11-21T09:35:45.386Z,22.03
2022-11-21T09:38:12.871Z,20.93
2022-11-21T09:40:46.547Z,21.83
2022-11-21T09:43:39.425Z,24.57
2022-11-21T09:46:11.807Z,30.13
2022-11-21T09:49:01.539Z,28.37
2022-11-21T09:51:32.139Z,25.80
2022-11-21T09:54:20.664Z,25.47
2022-11-21T09:56:49.129Z,35.90
2022-11-21T09:59:28.159Z,35.60
2022-11-21T10:01:56.310Z,32.93
2022-11-21T10:04:28.377Z,34.53
2022-11-21T10:07:27.978Z,24.03
2022-11-21T10:10:06.463Z,31.60
2022-11-21T10:13:23.820Z,37.40
2022-11-21T10:17:16.889Z,23.73
2022-11-21T10:20:28.263Z,19.57
2022-11-21T10:23:37.343Z,18.73
2022-11-21T10:26:41.730Z,17.63
2022-11-21T10:29:26.917Z,18.13
2022-11-21T10:32:04.949Z,17.13
2022-11-21T10:34:38.456Z,17.47
2022-11-21T10:37:17.373Z,17.93
2022-11-21T10:39:51.934Z,19.50
2022-11-21T10:42:27.801Z,21.67
2022-11-21T10:45:14.578Z,21.00
2022-11-21T10:47:42.344Z,18.73
2022-11-21T10:50:09.670Z,19.73
2022-11-21T10:52:50.973Z,20.93
2022-11-21T10:55:19.503Z,22.33
2022-11-21T10:57:52.467Z,24.00
2022-11-21T11:00:26.418Z,22.53
2022-11-21T11:02:56.817Z,27.23
2022-11-21T11:05:29.777Z,41.30
2022-11-21T11:08:15.178Z,42.50
2022-11-21T11:11:07.475Z,31.50
2022-11-21T11:14:01.061Z,38.53
2022-11-21T11:16:31.604Z,31.37
2022-11-21T11:19:24.384Z,30.63
2022-11-21T11:21:57.436Z,20.90
2022-11-21T11:24:27.630Z,21.37
2022-11-21T11:27:01.433Z,20.73
2022-11-21T11:29:50.901Z,38.70
2022-11-21T11:32:22.278Z,65.47
2022-11-21T11:35:00.845Z,28.63
2022-11-21T11:37:40.871Z,48.83
2022-11-21T11:40:23.717Z,37.87
2022-11-21T11:43:37.400Z,42.20
2022-11-21T11:47:22.108Z,23.73
2022-11-21T11:50:12.756Z,26.37
2022-11-21T11:53:33.511Z,32.40
2022-11-21T11:56:20.747Z,36.53
2022-11-21T11:59:09.572Z,29.10
2022-11-21T12:02:07.540Z,22.93
2022-11-21T12:04:47.187Z,20.67
2022-11-21T12:10:31.997Z,21.47
2022-11-21T12:13:12.056Z,28.37
2022-11-21T12:15:51.354Z,21.83
2022-11-21T12:18:21.680Z,20.13
2022-11-21T12:20:59.073Z,16.63
2022-11-21T12:23:35.808Z,12.30
2022-11-21T12:26:21.075Z,12.30
2022-11-21T12:29:24.725Z,12.97
2022-11-21T12:32:04.609Z,12.83
2022-11-21T12:34:54.946Z,13.37
2022-11-21T12:38:05.641Z,12.90
2022-11-21T12:40:54.265Z,13.07
2022-11-21T12:43:50.819Z,12.57
2022-11-21T12:46:56.134Z,12.23
2022-11-21T12:50:21.496Z,14.93
2022-11-21T12:53:15.859Z,10.87
2022-11-21T12:55:43.378Z,10.57
2022-11-21T12:58:21.457Z,11.47
2022-11-21T13:01:28.122Z,9.57
2022-11-21T13:04:02.451Z,9.80
2022-11-21T13:06:36.750Z,10.10
2022-11-21T13:09:10.445Z,9.10
2022-11-21T13:12:00.134Z,10.00
2022-11-21T13:14:45.363Z,9.40
2022-11-21T13:17:27.535Z,10.07
2022-11-21T13:20:34.682Z,10.00
2022-11-21T13:23:06.683Z,9.67
2022-11-21T13:25:38.819Z,9.47
2022-11-21T13:28:18.298Z,9.80
2022-11-21T13:30:49.344Z,9.97
2022-11-21T13:33:34.928Z,11.00
2022-11-21T13:36:11.588Z,10.10
2022-11-21T13:38:54.159Z,10.53
2022-11-21T13:41:55.136Z,10.23
2022-11-21T13:44:31.884Z,10.17
2022-11-21T13:47:26.434Z,9.97
2022-11-21T13:50:19.991Z,9.77
2022-11-21T13:53:17.483Z,9.47
2022-11-21T13:55:58.582Z,10.30
2022-11-21T13:59:13.475Z,10.70
2022-11-21T14:01:55.685Z,9.87
2022-11-21T14:04:56.242Z,10.93
2022-11-21T14:07:37.361Z,9.80
2022-11-21T14:10:25.364Z,9.73
2022-11-21T14:12:55.166Z,10.17
2022-11-21T14:15:53.576Z,10.50
2022-11-21T14:18:24.467Z,10.23
2022-11-21T14:21:00.099Z,10.90
2022-11-21T14:23:31.317Z,11.67
2022-11-21T14:26:13.120Z,12.33
2022-11-21T14:28:40.673Z,11.90
2022-11-21T14:31:11.531Z,13.37
2022-11-21T14:33:47.392Z,11.93
2022-11-21T14:36:24.881Z,12.53
2022-11-21T14:39:35.326Z,13.97
2022-11-21T14:42:02.848Z,11.73
2022-11-21T14:44:30.636Z,12.40
2022-11-21T14:47:25.839Z,13.00
2022-11-21T14:49:59.811Z,12.70
2022-11-21T14:52:34.268Z,23.70
2022-11-21T14:55:29.191Z,19.00
2022-11-21T14:57:56.742Z,15.90
2022-11-21T15:03:24.003Z,17.80
2022-11-21T15:06:06.955Z,17.20
2022-11-21T15:09:18.427Z,17.97
2022-11-21T15:11:36.738Z,15.33
2022-11-21T15:14:32.997Z,17.13
2022-11-21T15:17:04.425Z,17.03
2022-11-21T15:19:33.053Z,16.47
2022-11-21T15:22:04.466Z,17.13
2022-11-21T15:24:43.161Z,17.67
2022-11-21T15:27:31.018Z,17.73
2022-11-21T15:30:10.851Z,18.27
2022-11-21T15:33:01.930Z,19.37
2022-11-21T15:35:38.630Z,19.10
2022-11-21T15:39:05.137Z,18.27
2022-11-21T15:41:37.181Z,18.70
2022-11-21T15:44:04.496Z,17.60
2022-11-21T15:46:43.776Z,17.77
2022-11-21T15:49:31.910Z,17.77
2022-11-21T15:54:49.038Z,17.13
2022-11-21T15:57:11.170Z,19.47
2022-11-21T15:59:50.975Z,16.60
2022-11-21T16:02:18.371Z,15.93
2022-11-21T16:04:45.791Z,16.67
2022-11-21T16:07:13.318Z,16.33
2022-11-21T16:09:42.239Z,15.93
2022-11-21T16:12:10.197Z,15.67
2022-11-21T16:14:37.570Z,15.93
2022-11-21T16:17:05.075Z,15.57
2022-11-21T16:19:32.470Z,17.57
2022-11-21T16:22:00.272Z,18.73
2022-11-21T16:24:27.690Z,17.97
2022-11-21T16:26:56.082Z,18.33
2022-11-21T16:29:23.630Z,15.80
2022-11-21T16:31:51.870Z,16.10
2022-11-21T16:34:20.264Z,15.03
2022-11-21T16:36:47.768Z,17.00
2022-11-21T16:39:29.483Z,17.73
2022-11-21T16:41:56.975Z,19.13
2022-11-21T16:44:24.383Z,18.97
2022-11-21T16:46:54.489Z,27.70
2022-11-21T16:49:23.825Z,31.13
2022-11-21T16:51:51.303Z,24.13
2022-11-21T16:54:18.905Z,21.83
2022-11-21T16:56:47.087Z,20.07
2022-11-21T16:59:14.629Z,21.10
2022-11-21T17:01:42.260Z,24.57
2022-11-21T17:04:15.592Z,24.33
2022-11-21T17:06:45.081Z,18.73
2022-11-21T17:09:12.572Z,17.40
2022-11-21T17:11:39.979Z,24.17
2022-11-21T17:14:08.680Z,16.60
2022-11-21T17:16:37.836Z,15.70
2022-11-21T17:19:05.956Z,16.83
2022-11-21T17:21:34.195Z,14.77
2022-11-21T17:24:01.608Z,14.60
2022-11-21T17:26:30.208Z,14.37
2022-11-21T17:28:59.564Z,14.67
2022-11-21T17:31:28.198Z,13.70
2022-11-21T17:34:01.127Z,13.03
2022-11-21T17:36:31.104Z,12.90
2022-11-21T17:38:58.597Z,14.20
2022-11-21T17:41:27.522Z,14.37
2022-11-21T17:43:59.864Z,14.63
2022-11-21T17:46:28.407Z,14.27
2022-11-21T17:48:59.112Z,12.97
2022-11-21T17:51:33.550Z,12.17
2022-11-21T17:54:02.477Z,12.83
2022-11-21T17:56:32.986Z,13.17
2022-11-21T17:59:01.162Z,13.37
2022-11-21T18:01:29.602Z,13.30
2022-11-21T18:04:11.887Z,20.50
2022-11-21T18:06:42.212Z,14.27
2022-11-21T18:09:13.780Z,14.40
2022-11-21T18:11:41.890Z,14.13
2022-11-21T18:14:12.335Z,16.43
2022-11-21T18:16:42.737Z,15.13
2022-11-21T18:19:14.624Z,13.13
2022-11-21T18:21:42.287Z,12.73
2022-11-21T18:24:09.990Z,12.07
2022-11-21T18:26:39.331Z,11.90
2022-11-21T18:31:57.028Z,11.17
2022-11-21T18:34:24.643Z,11.07
2022-11-21T18:36:52.020Z,11.10
2022-11-21T18:39:19.516Z,12.17
2022-11-21T18:41:47.201Z,12.17
2022-11-21T18:44:21.378Z,12.60
2022-11-21T18:46:50.086Z,14.00
2022-11-21T18:49:18.031Z,13.87
2022-11-21T18:51:45.656Z,10.90
2022-11-21T18:54:13.288Z,32.57
2022-11-21T18:56:41.271Z,14.40
2022-11-21T18:59:09.019Z,13.77
2022-11-21T19:01:39.842Z,17.03
2022-11-21T19:04:07.545Z,11.37
2022-11-21T19:06:35.343Z,11.33
2022-11-21T19:09:02.776Z,11.80
2022-11-21T19:11:30.651Z,13.30
2022-11-21T19:14:01.904Z,14.10
2022-11-21T19:16:31.562Z,13.03
2022-11-21T19:19:32.992Z,13.73
2022-11-21T19:21:47.353Z,13.70
2022-11-21T19:24:19.656Z,14.30
2022-11-21T19:26:47.364Z,14.50
2022-11-21T19:29:14.905Z,14.50
2022-11-21T19:31:45.740Z,14.83
2022-11-21T19:34:15.193Z,16.70
2022-11-21T19:36:43.195Z,16.17
2022-11-21T19:39:11.459Z,20.40
2022-11-21T19:41:38.919Z,22.77
2022-11-21T19:44:06.504Z,25.20
2022-11-21T19:46:38.018Z,24.30
2022-11-21T19:49:06.910Z,28.07
2022-11-21T19:51:38.767Z,30.67
2022-11-21T19:54:08.379Z,30.57
2022-11-21T19:56:36.058Z,31.60
2022-11-21T19:59:04.016Z,32.17
2022-11-21T20:01:34.493Z,33.00
2022-11-21T20:04:04.328Z,31.97
2022-11-21T20:06:38.786Z,57.77
2022-11-21T20:09:15.992Z,56.07
2022-11-21T20:11:46.069Z,60.80
2022-11-21T20:14:21.122Z,51.80
2022-11-21T20:16:50.910Z,50.30
2022-11-21T20:19:21.512Z,54.63
2022-11-21T20:21:49.182Z,45.67
2022-11-21T20:24:17.848Z,42.83
2022-11-21T20:26:45.494Z,28.30
2022-11-21T20:29:14.354Z,24.73
2022-11-21T20:31:42.475Z,25.17
2022-11-21T20:34:14.101Z,30.77
2022-11-21T20:36:43.217Z,30.83
2022-11-21T20:39:16.612Z,23.00
2022-11-21T20:41:45.777Z,21.63
2022-11-21T20:47:06.664Z,15.43
2022-11-21T20:49:34.523Z,16.13
2022-11-21T20:54:49.497Z,15.40
2022-11-21T20:57:17.021Z,18.57
2022-11-21T20:59:44.515Z,21.07
2022-11-21T21:02:12.508Z,25.47
2022-11-21T21:04:40.296Z,25.63
2022-11-21T21:07:08.004Z,29.40
2022-11-21T21:09:35.455Z,79.53
2022-11-21T21:12:02.924Z,52.43
2022-11-21T21:14:30.302Z,44.27
2022-11-21T21:16:57.733Z,40.70
2022-11-21T21:19:28.528Z,35.20
2022-11-21T21:21:56.359Z,35.83
2022-11-21T21:24:23.830Z,38.60
2022-11-21T21:26:51.388Z,26.73
2022-11-21T21:29:22.001Z,26.10
2022-11-21T21:31:52.352Z,24.30
2022-11-21T21:34:22.426Z,21.13
2022-11-21T21:36:51.362Z,20.63
2022-11-21T21:39:19.356Z,19.53
2022-11-21T21:41:47.717Z,19.10
2022-11-21T21:44:16.843Z,19.23
2022-11-21T21:46:45.136Z,20.50
2022-11-21T21:49:13.527Z,21.23
2022-11-21T21:51:41.609Z,19.67
2022-11-21T21:54:19.791Z,21.60
2022-11-21T21:56:48.640Z,23.27
2022-11-21T21:59:18.317Z,20.70
2022-11-21T22:01:46.173Z,16.87
2022-11-21T22:04:13.770Z,16.17
2022-11-21T22:06:41.443Z,16.37
2022-11-21T22:09:09.378Z,18.13
2022-11-21T22:11:38.550Z,14.77
2022-11-21T22:14:14.715Z,15.43
2022-11-21T22:16:43.580Z,15.07
2022-11-21T22:19:11.089Z,14.70
2022-11-21T22:21:39.315Z,15.77
2022-11-21T22:24:25.475Z,15.30
2022-11-21T22:26:54.025Z,15.97
2022-11-21T22:29:21.448Z,16.83
2022-11-21T22:31:48.876Z,17.47
2022-11-21T22:34:16.343Z,16.07
2022-11-21T22:36:44.886Z,18.33
2022-11-21T22:39:12.460Z,20.83
2022-11-21T22:41:40.035Z,16.43
2022-11-21T22:44:07.470Z,17.50
2022-11-21T22:46:35.538Z,16.83
2022-11-21T22:49:03.896Z,18.50
2022-11-21T22:51:31.318Z,18.40
2022-11-21T22:53:58.734Z,18.97
2022-11-21T22:56:27.598Z,27.00
2022-11-21T22:58:55.205Z,22.17
2022-11-21T23:01:25.643Z,21.57
2022-11-21T23:03:53.638Z,20.77
2022-11-21T23:06:25.021Z,20.03
2022-11-21T23:08:54.710Z,19.20
2022-11-21T23:11:37.857Z,19.80
2022-11-21T23:14:08.455Z,22.40
2022-11-21T23:16:35.861Z,23.00
2022-11-21T23:19:03.376Z,27.60
2022-11-21T23:21:30.849Z,22.83
2022-11-21T23:23:58.242Z,26.20
2022-11-21T23:26:25.724Z,22.87
2022-11-21T23:28:53.302Z,21.80
2022-11-21T23:31:20.707Z,23.63
2022-11-21T23:33:48.139Z,22.93
2022-11-21T23:36:15.647Z,21.60
2022-11-21T23:38:43.119Z,21.70
2022-11-21T23:41:10.941Z,22.50
2022-11-21T23:43:38.621Z,21.23
2022-11-21T23:46:06.374Z,21.20
2022-11-21T23:48:33.845Z,20.77
2022-11-21T23:51:01.293Z,21.23
2022-11-21T23:53:28.684Z,21.40
2022-11-21T23:55:56.057Z,21.47
2022-11-21T23:58:23.565Z,20.43
